Terminal Aerodrome Forecast
Issued by NWS Shreveport, LA

Home | Current Version | Previous Version | Text Only | Print | Product List | Glossary On
Versions: 1 2 3 4 5 6 7 8 9 10 11 12 13 14 15 16 17 18 19
000
FTUS44 KSHV 052320
TAFLFK
TAF
KLFK 052320Z 0600/0624 17008KT P6SM SCT250
      TEMPO 0610/0614 5SM BR BKN005
     FM061400 18006KT P6SM BKN008
     FM061600 19010KT P6SM SCT030
     FM061900 18012G20KT P6SM SCT250=

USA.gov is the U.S. government's official web portal to all federal, state and local government web resources and services.